Time;durP1;ratioP1;P1;durP2;ratioP2;P2;SDS_P1;SDS_P2;PMS_P1;PMS_P2;Temp;Humidity;BMP_temperature;BMP_pressure;BME280_temperature;BME280_humidity;BME280_pressure;Samples;Min_cycle;Max_cycle;Signal;HPM_P1;HPM_P2
2022/01/10 00:00:59;;;;;;;4.70;4.20;;;;;;;6.04;72.81;93375.59;6189196;23;20203;-63
2022/01/10 00:03:24;;;;;;;5.83;4.23;;;;;;;6.02;72.90;93376.75;6163863;23;20178;-63
2022/01/10 00:05:50;;;;;;;5.90;4.93;;;;;;;6.08;72.94;93376.88;6186891;23;20186;-64
2022/01/10 00:08:16;;;;;;;6.10;4.37;;;;;;;6.03;72.95;93376.56;6187557;23;20272;-63
2022/01/10 00:10:43;;;;;;;5.23;4.47;;;;;;;6.08;72.85;93383.91;6187197;23;20207;-63
2022/01/10 00:13:09;;;;;;;5.50;4.90;;;;;;;5.96;73.24;93378.19;6161639;23;20204;-64
2022/01/10 00:15:35;;;;;;;8.00;4.40;;;;;;;6.03;73.22;93371.34;6162987;23;20174;-66
2022/01/10 00:18:00;;;;;;;6.00;4.30;;;;;;;6.07;73.25;93380.47;6162793;23;20198;-64
2022/01/10 00:20:26;;;;;;;5.70;4.63;;;;;;;6.10;72.98;93377.53;6163782;23;20203;-63
2022/01/10 00:22:51;;;;;;;5.83;4.53;;;;;;;6.01;72.99;93377.69;6186843;23;20195;-65
2022/01/10 00:25:20;;;;;;;5.30;4.10;;;;;;;6.12;72.99;93385.19;6162325;23;20211;-65
2022/01/10 00:27:46;;;;;;;5.83;4.60;;;;;;;6.12;73.19;93380.81;6164293;23;20202;-65
2022/01/10 00:30:12;;;;;;;4.20;3.80;;;;;;;6.14;73.08;93373.59;6187389;23;20190;-65
2022/01/10 00:32:41;;;;;;;4.63;3.60;;;;;;;6.08;73.37;93383.91;6163107;23;20262;-64
2022/01/10 00:35:07;;;;;;;5.33;4.30;;;;;;;6.00;73.78;93374.28;6186707;23;20225;-67
2022/01/10 00:37:34;;;;;;;6.00;4.50;;;;;;;5.98;73.63;93373.63;6185322;23;20205;-65
2022/01/10 00:40:01;;;;;;;4.97;3.90;;;;;;;6.01;73.73;93377.69;6160947;23;20203;-64
2022/01/10 00:42:26;;;;;;;5.33;4.13;;;;;;;5.95;73.78;93373.97;6162835;23;20194;-66
2022/01/10 00:44:53;;;;;;;6.23;4.00;;;;;;;6.05;73.75;93376.41;6163018;23;20195;-66
2022/01/10 00:47:20;;;;;;;6.70;4.63;;;;;;;6.07;73.02;93377.88;6189262;23;20264;-67
2022/01/10 00:49:46;;;;;;;4.93;4.27;;;;;;;5.99;73.65;93371.81;6165220;23;20214;-66
2022/01/10 00:52:12;;;;;;;4.80;4.00;;;;;;;5.99;73.44;93375.28;6190122;23;20834;-64
2022/01/10 00:54:38;;;;;;;5.17;4.40;;;;;;;5.97;73.83;93377.22;6165243;23;20182;-66
2022/01/10 00:57:06;;;;;;;4.33;3.60;;;;;;;5.99;73.73;93370.06;6189724;23;20209;-66
2022/01/10 00:59:32;;;;;;;4.57;4.00;;;;;;;5.91;73.71;93368.22;6165817;23;20210;-64
2022/01/10 01:01:58;;;;;;;4.37;3.50;;;;;;;5.88;73.94;93362.50;6189186;23;20195;-64
2022/01/10 01:04:23;;;;;;;4.60;3.97;;;;;;;5.88;73.99;93372.94;6164790;23;20237;-64
2022/01/10 01:06:49;;;;;;;4.47;3.60;;;;;;;5.98;74.09;93373.63;6164062;23;20214;-67
2022/01/10 01:09:18;;;;;;;4.80;3.40;;;;;;;5.98;73.90;93365.78;6190569;23;20198;-64
2022/01/10 01:14:21;;;;;;;4.53;3.47;;;;;;;6.02;73.64;93368.91;6165663;23;20210;-63
2022/01/10 01:16:56;;;;;;;3.80;3.40;;;;;;;5.93;74.08;93365.44;6162080;23;20205;-64
2022/01/10 01:24:33;;;;;;;4.50;3.80;;;;;;;5.94;74.49;93362.72;6165754;23;20250;-65
2022/01/10 01:26:59;;;;;;;4.77;3.83;;;;;;;5.97;74.74;93361.56;6165007;23;20191;-64
2022/01/10 01:29:27;;;;;;;4.63;4.00;;;;;;;5.96;74.78;93355.53;6188831;23;20206;-65
2022/01/10 01:31:54;;;;;;;5.03;4.17;;;;;;;5.94;74.44;93357.50;6163281;23;20213;-64
2022/01/10 01:34:22;;;;;;;7.73;5.20;;;;;;;5.93;75.01;93352.41;6165224;23;20194;-64
2022/01/10 01:36:52;;;;;;;5.37;4.40;;;;;;;5.94;75.31;93354.06;6188891;23;20202;-64
2022/01/10 01:39:24;;;;;;;4.73;4.23;;;;;;;5.93;75.32;93347.19;6189557;23;20189;-64
2022/01/10 01:41:54;;;;;;;5.87;4.50;;;;;;;5.97;75.16;93349.34;6164339;23;20261;-65
2022/01/10 01:44:19;;;;;;;5.00;4.57;;;;;;;5.90;75.54;93344.91;6165186;23;20202;-65
2022/01/10 01:46:45;;;;;;;5.93;4.37;;;;;;;5.90;75.52;93337.88;6166215;23;20278;-64
2022/01/10 01:49:12;;;;;;;5.33;4.27;;;;;;;5.98;75.58;93347.53;6163850;23;20198;-63
2022/01/10 01:51:38;;;;;;;5.90;4.87;;;;;;;5.94;75.90;93341.84;6188436;23;20209;-63
2022/01/10 01:54:05;;;;;;;6.40;4.60;;;;;;;5.88;76.30;93336.41;6165471;23;20181;-64
2022/01/10 01:56:31;;;;;;;5.17;4.67;;;;;;;5.91;76.32;93338.72;6163418;23;20213;-64
2022/01/10 01:58:57;;;;;;;5.83;4.80;;;;;;;5.79;76.79;93332.19;6165259;23;20203;-64
2022/01/10 02:01:24;;;;;;;5.20;4.70;;;;;;;5.76;76.56;93330.72;6166335;23;20198;-63
2022/01/10 02:03:50;;;;;;;6.43;5.10;;;;;;;5.72;77.21;93332.88;6165906;23;20214;-64
2022/01/10 02:06:16;;;;;;;5.60;4.53;;;;;;;5.79;77.15;93333.00;6164082;23;20335;-63
2022/01/10 02:08:42;;;;;;;5.73;4.60;;;;;;;5.84;77.21;93340.34;6164150;23;20210;-63
2022/01/10 02:11:09;;;;;;;6.77;4.60;;;;;;;5.80;77.10;93333.81;6187914;23;20206;-64
2022/01/10 02:13:36;;;;;;;5.60;5.00;;;;;;;5.75;77.27;93327.31;6163468;23;20194;-64
2022/01/10 02:16:04;;;;;;;6.73;5.67;;;;;;;5.76;77.85;93338.56;6164818;23;20191;-66
2022/01/10 02:18:31;;;;;;;6.30;5.37;;;;;;;5.82;77.65;93343.09;6164420;23;20222;-64
2022/01/10 02:21:00;;;;;;;8.03;6.20;;;;;;;5.81;77.73;93338.06;6165305;23;20237;-65
2022/01/10 02:23:26;;;;;;;5.90;4.87;;;;;;;5.77;78.35;93329.75;6164549;23;20198;-64
2022/01/10 02:25:51;;;;;;;7.43;5.77;;;;;;;5.80;78.23;93331.22;6162273;23;20304;-65
2022/01/10 02:28:17;;;;;;;6.33;5.73;;;;;;;5.80;78.22;93329.44;6188368;23;20198;-66
2022/01/10 02:30:43;;;;;;;7.00;6.00;;;;;;;5.74;78.34;93328.28;6188993;23;20253;-65
2022/01/10 02:33:08;;;;;;;6.00;5.17;;;;;;;5.64;78.83;93334.63;6188588;23;20246;-64
2022/01/10 02:35:43;;;;;;;6.17;5.57;;;;;;;5.73;79.15;93337.09;6188845;23;20199;-67
2022/01/10 02:38:08;;;;;;;5.70;5.17;;;;;;;5.74;78.67;93341.31;6164370;23;20217;-64
2022/01/10 02:40:34;;;;;;;6.97;6.03;;;;;;;5.67;79.37;93340.34;6165486;23;20226;-65
2022/01/10 02:43:01;;;;;;;6.87;6.07;;;;;;;5.60;79.68;93339.38;6164062;23;20199;-64
2022/01/10 02:45:27;;;;;;;7.87;7.07;;;;;;;5.55;80.02;93335.63;6163019;23;20264;-65
2022/01/10 02:47:54;;;;;;;8.10;7.30;;;;;;;5.60;79.85;93336.75;6164920;23;20183;-67
2022/01/10 02:50:21;;;;;;;10.50;7.93;;;;;;;5.65;80.03;93336.28;6188297;23;20190;-67
2022/01/10 02:52:48;;;;;;;8.10;7.30;;;;;;;5.65;79.94;93337.09;6188184;23;20203;-68
2022/01/10 02:55:14;;;;;;;9.17;8.10;;;;;;;5.70;79.50;93339.22;6165462;23;20205;-66
2022/01/10 02:57:40;;;;;;;8.20;7.40;;;;;;;5.62;80.02;93342.63;6189133;23;20186;-66
2022/01/10 03:00:12;;;;;;;7.57;6.87;;;;;;;5.64;79.60;93335.47;6164847;23;20290;-67
2022/01/10 03:02:38;;;;;;;8.50;7.17;;;;;;;5.63;79.72;93344.25;6163820;23;20195;-64
2022/01/10 03:05:05;;;;;;;8.87;8.03;;;;;;;5.68;79.58;93344.59;6163236;23;20205;-64
2022/01/10 03:07:31;;;;;;;11.27;8.40;;;;;;;5.64;79.79;93343.28;6187858;23;20206;-65
2022/01/10 03:09:57;;;;;;;9.20;8.23;;;;;;;5.74;79.52;93349.13;6188581;23;20250;-64
2022/01/10 03:12:23;;;;;;;10.80;8.50;;;;;;;5.73;79.18;93344.91;6188939;23;20174;-64
2022/01/10 03:14:49;;;;;;;8.97;7.93;;;;;;;5.71;79.23;93351.28;6164619;23;20186;-65
2022/01/10 03:17:14;;;;;;;9.60;8.57;;;;;;;5.61;79.53;93340.19;6163525;23;20221;-64
2022/01/10 03:19:42;;;;;;;8.60;7.77;;;;;;;5.63;79.38;93346.88;6187605;23;20206;-65
2022/01/10 03:22:08;;;;;;;8.73;7.73;;;;;;;5.64;79.55;93343.28;6164105;23;20237;-64
2022/01/10 03:24:34;;;;;;;9.77;7.90;;;;;;;5.62;79.27;93347.03;6163569;23;20178;-64
2022/01/10 03:27:00;;;;;;;8.77;7.33;;;;;;;5.58;79.31;93351.75;6163563;23;20238;-64
2022/01/10 03:29:25;;;;;;;9.20;7.73;;;;;;;5.67;79.59;93348.19;6164657;23;20202;-64
2022/01/10 03:31:51;;;;;;;10.87;7.47;;;;;;;5.56;79.52;93345.91;6164278;23;20202;-63
2022/01/10 03:34:16;;;;;;;11.83;8.00;;;;;;;5.53;78.97;93339.22;6188094;23;20194;-67
2022/01/10 03:36:43;;;;;;;12.47;8.20;;;;;;;5.62;79.28;93347.03;6187876;23;20202;-65
2022/01/10 03:39:10;;;;;;;8.13;7.33;;;;;;;5.65;79.20;93346.72;6188369;23;20213;-67
2022/01/10 03:41:36;;;;;;;7.00;6.10;;;;;;;5.58;79.09;93349.13;6162618;23;20221;-68
2022/01/10 03:44:04;;;;;;;6.73;6.03;;;;;;;5.51;79.94;93354.19;6162208;23;20516;-65
2022/01/10 03:46:32;;;;;;;7.00;6.30;;;;;;;5.59;79.20;93353.41;6164143;23;20203;-64
2022/01/10 03:48:58;;;;;;;6.60;5.47;;;;;;;5.56;79.23;93343.28;6188565;23;20202;-64
2022/01/10 03:51:23;;;;;;;8.03;6.17;;;;;;;5.67;78.63;93352.59;6164613;23;20198;-63
2022/01/10 03:53:49;;;;;;;6.63;5.87;;;;;;;5.64;78.57;93355.50;6164404;23;20209;-64
2022/01/10 03:56:14;;;;;;;5.87;5.23;;;;;;;5.54;78.08;93358.28;6187675;23;20195;-67
2022/01/10 03:58:40;;;;;;;8.40;6.03;;;;;;;5.51;78.02;93361.22;6163318;23;20222;-64
2022/01/10 04:01:08;;;;;;;6.43;5.83;;;;;;;5.50;78.24;93364.78;6188400;23;20198;-65
2022/01/10 04:03:34;;;;;;;6.00;5.40;;;;;;;5.55;77.75;93364.31;6187418;23;20191;-65
2022/01/10 04:06:00;;;;;;;6.67;5.63;;;;;;;5.47;77.69;93376.34;6163941;23;20230;-64
2022/01/10 04:08:26;;;;;;;5.37;4.83;;;;;;;5.45;78.07;93367.06;6189553;23;20213;-64
2022/01/10 04:10:52;;;;;;;5.87;5.37;;;;;;;5.46;77.79;93368.69;6164619;23;20209;-67
2022/01/10 04:13:18;;;;;;;6.33;5.23;;;;;;;5.51;77.86;93377.66;6193747;23;20190;-67
2022/01/10 04:15:44;;;;;;;5.37;4.87;;;;;;;5.58;77.31;93371.78;6194006;23;20228;-67
2022/01/10 04:18:09;;;;;;;6.80;5.00;;;;;;;5.54;77.11;93373.91;6168019;23;20201;-65
2022/01/10 04:20:35;;;;;;;5.20;4.30;;;;;;;5.47;76.87;93370.31;6195225;23;20205;-64
2022/01/10 04:23:00;;;;;;;4.97;4.00;;;;;;;5.48;77.55;93379.75;6195516;23;20193;-64
2022/01/10 04:25:26;;;;;;;5.00;4.27;;;;;;;5.51;77.17;93382.88;6170493;23;20217;-64
2022/01/10 04:27:52;;;;;;;4.50;3.67;;;;;;;5.51;77.27;93392.50;6169520;23;20257;-65
2022/01/10 04:30:17;;;;;;;4.80;4.23;;;;;;;5.51;77.24;93393.31;6171000;23;20174;-64
2022/01/10 04:32:44;;;;;;;5.83;4.70;;;;;;;5.40;77.62;93391.00;6169566;23;20202;-64
2022/01/10 04:35:10;;;;;;;6.73;4.90;;;;;;;5.39;77.57;93396.38;6169146;23;20202;-64
2022/01/10 04:37:36;;;;;;;6.13;4.83;;;;;;;5.35;78.24;93397.69;6168198;23;20198;-64
2022/01/10 04:40:03;;;;;;;6.30;5.20;;;;;;;5.37;77.94;93400.94;6196267;23;20213;-63
2022/01/10 04:42:29;;;;;;;7.20;5.77;;;;;;;5.38;77.75;93399.97;6194452;23;20174;-63
2022/01/10 04:44:54;;;;;;;7.70;5.57;;;;;;;5.44;77.81;93396.72;6193402;23;20192;-64
2022/01/10 04:47:20;;;;;;;7.20;5.40;;;;;;;5.35;77.61;93403.72;6192732;23;20194;-64
2022/01/10 04:52:29;;;;;;;5.27;4.77;;;;;;;5.39;77.42;93401.59;6197454;23;20202;-63
2022/01/10 04:54:55;;;;;;;5.30;4.80;;;;;;;5.40;77.59;93414.47;6168301;23;20225;-63
2022/01/10 04:57:22;;;;;;;6.20;4.37;;;;;;;5.43;77.50;93408.13;6196850;23;20194;-64
2022/01/10 04:59:48;;;;;;;4.93;4.50;;;;;;;5.45;77.71;93406.16;6196331;23;20194;-63
2022/01/10 05:02:13;;;;;;;5.80;5.20;;;;;;;5.35;77.63;93419.34;6169551;23;20260;-65
2022/01/10 05:04:39;;;;;;;4.87;4.47;;;;;;;5.34;77.48;93422.91;6192752;23;20217;-62
2022/01/10 05:07:04;;;;;;;4.90;4.40;;;;;;;5.36;77.51;93420.97;6194577;23;20206;-64
2022/01/10 05:09:31;;;;;;;6.47;5.10;;;;;;;5.35;77.01;93424.56;6168376;23;20178;-65
2022/01/10 05:11:56;;;;;;;5.90;5.40;;;;;;;5.39;77.12;93419.84;6167356;23;20197;-64
2022/01/10 05:14:22;;;;;;;5.63;5.07;;;;;;;5.24;77.47;93417.84;6193283;23;20194;-63
2022/01/10 05:16:48;;;;;;;7.70;5.20;;;;;;;5.36;77.83;93426.19;6193964;23;20221;-63
2022/01/10 05:19:14;;;;;;;6.03;5.23;;;;;;;5.31;77.64;93423.22;6168213;23;20313;-63
2022/01/10 05:21:40;;;;;;;5.77;4.90;;;;;;;5.19;78.33;93412.28;6168434;23;20186;-63
2022/01/10 05:24:07;;;;;;;6.53;5.23;;;;;;;5.16;78.97;93424.81;6194908;23;20204;-62
2022/01/10 05:26:32;;;;;;;6.63;5.00;;;;;;;5.23;78.71;93439.66;6168972;23;20202;-62
2022/01/10 05:28:59;;;;;;;7.30;5.67;;;;;;;5.20;78.77;93431.34;6167327;23;20213;-63
2022/01/10 05:31:25;;;;;;;8.80;5.10;;;;;;;5.21;78.84;93438.19;6169539;23;20197;-62
2022/01/10 05:33:51;;;;;;;5.90;5.33;;;;;;;5.24;78.96;93438.69;6168834;23;20253;-62
2022/01/10 05:36:17;;;;;;;6.63;6.03;;;;;;;5.25;78.82;93429.91;6169920;23;20178;-62
2022/01/10 05:38:42;;;;;;;7.13;6.20;;;;;;;5.24;78.83;93443.09;6168491;23;20202;-62
2022/01/10 05:41:08;;;;;;;6.43;5.30;;;;;;;5.19;78.87;93440.97;6166936;23;20318;-63
2022/01/10 05:43:34;;;;;;;6.43;5.83;;;;;;;5.22;79.13;93445.84;6167781;23;20224;-64
2022/01/10 05:46:02;;;;;;;7.10;5.70;;;;;;;5.19;78.86;93450.56;6168169;23;20202;-65
2022/01/10 05:48:30;;;;;;;6.47;5.73;;;;;;;5.16;78.69;93450.88;6169024;23;20198;-63
2022/01/10 05:50:56;;;;;;;6.87;6.17;;;;;;;5.22;78.57;93445.84;6169767;23;20202;-63
2022/01/10 05:53:23;;;;;;;6.60;6.00;;;;;;;5.22;78.43;93450.25;6169059;23;20214;-63
2022/01/10 05:55:49;;;;;;;6.83;6.13;;;;;;;5.15;78.86;93449.25;6168237;23;20217;-63
2022/01/10 05:58:15;;;;;;;7.10;6.40;;;;;;;5.08;78.96;93452.50;6168568;23;20202;-64
2022/01/10 06:00:41;;;;;;;8.03;6.73;;;;;;;5.15;79.20;93455.25;6168069;23;23348;-64
2022/01/10 06:03:07;;;;;;;8.17;6.80;;;;;;;5.12;78.94;93460.78;6194257;23;20197;-63
2022/01/10 06:05:34;;;;;;;8.53;7.20;;;;;;;5.09;79.10;93464.53;6168549;23;20194;-67
2022/01/10 06:08:02;;;;;;;7.97;7.17;;;;;;;5.11;79.17;93464.38;6168983;23;20206;-63
2022/01/10 06:10:28;;;;;;;7.37;6.67;;;;;;;5.05;79.35;93471.03;6194664;23;20194;-62
2022/01/10 06:12:56;;;;;;;7.77;6.87;;;;;;;5.04;79.33;93469.38;6192689;23;20198;-63
2022/01/10 06:15:23;;;;;;;7.70;7.00;;;;;;;5.08;79.85;93467.31;6168345;23;20221;-64
2022/01/10 06:17:49;;;;;;;11.07;6.93;;;;;;;5.09;79.15;93474.13;6194277;23;20193;-64
2022/01/10 06:20:15;;;;;;;9.00;7.40;;;;;;;5.10;79.07;93470.56;6193855;23;20198;-65
2022/01/10 06:22:41;;;;;;;8.50;7.00;;;;;;;5.14;78.78;93478.88;6167631;23;20194;-64
2022/01/10 06:25:09;;;;;;;8.57;7.33;;;;;;;5.18;78.93;93481.00;6168979;23;20208;-66
2022/01/10 06:27:35;;;;;;;9.03;7.37;;;;;;;5.16;78.91;93477.75;6192892;23;20186;-63
2022/01/10 06:30:00;;;;;;;8.83;7.77;;;;;;;5.11;78.89;93474.00;6168595;23;20224;-64
2022/01/10 06:32:26;;;;;;;11.70;7.97;;;;;;;5.13;78.84;93487.66;6167659;23;20292;-63
2022/01/10 06:34:52;;;;;;;9.87;7.57;;;;;;;5.17;79.02;93479.38;6166572;23;20202;-68
2022/01/10 06:37:19;;;;;;;9.07;7.20;;;;;;;5.22;78.50;93481.53;6193387;23;20220;-64
2022/01/10 06:39:44;;;;;;;10.60;7.67;;;;;;;5.20;78.35;93480.84;6192631;23;20202;-63
2022/01/10 06:42:10;;;;;;;9.40;7.47;;;;;;;5.20;78.66;93483.47;6168366;23;20256;-65
2022/01/10 06:44:36;;;;;;;8.93;7.73;;;;;;;5.17;78.27;93479.38;6168707;23;20252;-63
2022/01/10 06:47:02;;;;;;;12.50;8.30;;;;;;;5.25;78.32;93491.63;6192514;23;20202;-63
2022/01/10 06:49:27;;;;;;;9.57;8.17;;;;;;;5.15;78.86;93480.50;6166341;23;20209;-64
2022/01/10 06:51:53;;;;;;;9.97;8.10;;;;;;;5.16;78.42;93489.94;6166547;23;20206;-62
2022/01/10 06:54:18;;;;;;;9.93;7.90;;;;;;;5.13;78.61;93493.69;6169240;23;20186;-61
2022/01/10 06:56:44;;;;;;;10.13;7.80;;;;;;;5.18;78.07;93490.63;6167285;23;20208;-65
2022/01/10 06:59:09;;;;;;;12.27;8.17;;;;;;;5.22;78.46;93491.94;6168492;23;20206;-63
2022/01/10 07:01:35;;;;;;;8.87;7.20;;;;;;;5.16;78.04;93497.75;6194436;23;20213;-66
2022/01/10 07:04:00;;;;;;;9.67;7.03;;;;;;;5.20;77.91;93504.31;6167564;23;20190;-62
2022/01/10 07:06:26;;;;;;;11.23;7.53;;;;;;;5.13;78.54;93498.88;6168065;23;20276;-63
2022/01/10 07:08:52;;;;;;;9.30;7.60;;;;;;;5.28;78.27;93502.56;6168313;23;20237;-63
2022/01/10 07:11:17;;;;;;;8.97;7.47;;;;;;;5.25;77.81;93502.88;6168028;23;20209;-64
2022/01/10 07:13:43;;;;;;;10.70;7.87;;;;;;;5.21;77.33;93506.78;6193646;23;20224;-61
2022/01/10 07:16:08;;;;;;;10.93;8.13;;;;;;;5.20;78.10;93499.91;6193022;23;20206;-61
2022/01/10 07:18:34;;;;;;;14.77;8.43;;;;;;;5.32;78.10;93513.50;6194291;23;20182;-64
2022/01/10 07:21:00;;;;;;;9.23;8.00;;;;;;;5.43;77.59;93507.19;6168506;23;20205;-61
2022/01/10 07:23:26;;;;;;;9.27;7.70;;;;;;;5.41;77.47;93516.94;6166740;23;20202;-61
2022/01/10 07:25:51;;;;;;;9.07;7.90;;;;;;;5.31;77.72;93511.84;6192960;23;20209;-63
2022/01/10 07:28:17;;;;;;;12.07;8.00;;;;;;;5.36;78.06;93521.81;6167038;23;20205;-62
2022/01/10 07:30:43;;;;;;;10.27;7.73;;;;;;;5.35;78.05;93528.00;6165785;23;20205;-61
2022/01/10 07:33:08;;;;;;;9.37;7.70;;;;;;;5.40;77.80;93536.16;6191197;23;20190;-62
2022/01/10 07:35:34;;;;;;;10.33;8.33;;;;;;;5.34;78.14;93532.38;6165340;23;20205;-62
2022/01/10 07:37:59;;;;;;;9.27;8.23;;;;;;;5.27;78.22;93527.00;6166786;23;20194;-61
2022/01/10 07:40:25;;;;;;;11.00;8.30;;;;;;;5.35;78.15;93528.81;6189810;23;20253;-62
2022/01/10 07:42:51;;;;;;;10.20;7.70;;;;;;;5.46;77.72;93535.53;6165087;23;20201;-63
2022/01/10 07:45:17;;;;;;;9.20;7.97;;;;;;;5.50;77.54;93542.88;6193863;23;20225;-62
2022/01/10 07:47:43;;;;;;;8.23;7.30;;;;;;;5.46;77.68;93543.34;6167441;23;20264;-62
2022/01/10 07:50:09;;;;;;;9.77;8.47;;;;;;;5.45;77.56;93545.16;6193505;23;20225;-63
2022/01/10 07:52:35;;;;;;;12.00;9.07;;;;;;;5.43;77.46;93541.06;6168032;23;20202;-63
2022/01/10 07:55:01;;;;;;;11.00;8.57;;;;;;;5.45;77.79;93541.72;6192747;23;20240;-62
2022/01/10 07:57:27;;;;;;;9.70;8.20;;;;;;;5.41;78.20;93540.41;6168093;23;20189;-62
2022/01/10 07:59:52;;;;;;;11.43;8.57;;;;;;;5.38;77.96;93535.50;6168705;23;20194;-62
2022/01/10 08:02:20;;;;;;;11.00;8.47;;;;;;;5.38;78.06;93545.94;6166885;23;20206;-63
2022/01/10 08:04:46;;;;;;;10.57;8.43;;;;;;;5.44;77.93;93537.47;6193542;23;20201;-62
2022/01/10 08:07:12;;;;;;;10.53;8.33;;;;;;;5.39;77.91;93544.94;6167785;23;20252;-62
2022/01/10 08:09:37;;;;;;;10.40;8.83;;;;;;;5.40;77.96;93543.97;6168618;23;20248;-63
2022/01/10 08:12:03;;;;;;;11.90;8.60;;;;;;;5.34;77.94;93536.78;6194874;23;20185;-61
2022/01/10 08:14:30;;;;;;;10.33;8.63;;;;;;;5.42;78.34;93540.22;6193805;23;20268;-63
2022/01/10 08:16:56;;;;;;;11.97;9.30;;;;;;;5.54;78.03;93538.19;6167175;23;20241;-64
2022/01/10 08:19:22;;;;;;;11.73;8.97;;;;;;;5.54;77.90;93538.19;6192474;23;20240;-63
2022/01/10 08:21:48;;;;;;;11.93;8.53;;;;;;;5.41;77.88;93541.22;6167502;23;20198;-63
2022/01/10 08:24:15;;;;;;;11.23;9.13;;;;;;;5.45;77.96;93534.72;6167802;23;20237;-63
2022/01/10 08:26:40;;;;;;;12.77;9.83;;;;;;;5.65;77.70;93548.31;6168257;23;20205;-62
2022/01/10 08:29:07;;;;;;;12.47;9.73;;;;;;;5.63;77.40;93547.66;6194395;23;20202;-64
2022/01/10 08:31:33;;;;;;;11.57;10.00;;;;;;;5.59;77.67;93550.75;6193986;23;20225;-64
2022/01/10 08:34:04;;;;;;;13.60;10.90;;;;;;;5.65;77.66;93555.31;6193610;23;20334;-65
2022/01/10 08:36:30;;;;;;;12.80;11.13;;;;;;;5.62;77.94;93551.25;6168088;23;20255;-63
2022/01/10 08:38:56;;;;;;;13.30;11.00;;;;;;;5.63;77.79;93545.03;6168253;23;20289;-65
2022/01/10 08:41:22;;;;;;;13.77;11.27;;;;;;;5.59;78.24;93548.13;6167991;23;20254;-63
2022/01/10 08:43:47;;;;;;;14.37;11.63;;;;;;;5.52;78.38;93547.94;6168265;23;20257;-61
2022/01/10 08:46:13;;;;;;;15.60;11.63;;;;;;;5.42;78.84;93547.25;6168497;23;20197;-62
2022/01/10 08:48:40;;;;;;;17.77;12.57;;;;;;;5.54;78.64;93553.81;6167842;23;20190;-62
2022/01/10 08:51:06;;;;;;;14.30;11.90;;;;;;;5.58;78.59;93562.13;6167894;23;20193;-62
2022/01/10 08:53:32;;;;;;;20.27;15.80;;;;;;;5.44;78.73;93560.94;6192486;23;20217;-62
2022/01/10 08:55:57;;;;;;;22.30;19.10;;;;;;;5.57;78.04;93558.72;6167987;23;20198;-63
2022/01/10 08:58:25;;;;;;;21.27;15.73;;;;;;;5.42;78.00;93568.91;6167205;23;20194;-63
2022/01/10 09:00:51;;;;;;;18.43;14.80;;;;;;;5.34;77.44;93565.44;6165901;23;20206;-62
2022/01/10 09:03:16;;;;;;;18.13;14.40;;;;;;;5.32;77.18;93573.44;6193767;23;20178;-63
2022/01/10 09:05:42;;;;;;;17.43;14.40;;;;;;;5.37;78.23;93560.72;6194645;23;20208;-61
2022/01/10 09:08:07;;;;;;;17.47;13.63;;;;;;;5.37;77.29;93568.56;6169383;23;20214;-63
2022/01/10 09:10:33;;;;;;;15.17;13.27;;;;;;;5.44;77.59;93571.38;6194495;23;20197;-64
2022/01/10 09:12:58;;;;;;;17.90;15.27;;;;;;;5.36;77.89;93566.13;6169592;23;20205;-62
2022/01/10 09:15:24;;;;;;;14.83;12.80;;;;;;;5.47;78.08;93574.47;6195380;23;20182;-61
2022/01/10 09:17:50;;;;;;;13.90;11.43;;;;;;;5.45;77.59;93567.78;6195830;23;20174;-61
2022/01/10 09:20:15;;;;;;;14.90;11.73;;;;;;;5.59;76.71;93564.59;6195700;23;20198;-63
2022/01/10 09:22:41;;;;;;;14.83;11.43;;;;;;;5.37;77.48;93562.53;6170192;23;20206;-63
2022/01/10 09:25:07;;;;;;;14.47;9.80;;;;;;;5.43;77.22;93567.13;6170126;23;20200;-62
2022/01/10 09:27:33;;;;;;;13.77;11.00;;;;;;;5.31;77.77;93567.38;6168820;23;20174;-62
2022/01/10 09:29:58;;;;;;;11.40;9.53;;;;;;;5.28;77.80;93565.09;6169804;23;20170;-61
2022/01/10 09:32:24;;;;;;;12.63;9.77;;;;;;;5.18;77.74;93555.75;6194745;23;20194;-62
2022/01/10 09:34:49;;;;;;;16.20;10.83;;;;;;;5.24;78.07;93563.78;6193706;23;20204;-62
2022/01/10 09:37:15;;;;;;;13.53;10.53;;;;;;;5.33;77.86;93566.44;6169246;23;20194;-61
2022/01/10 09:39:41;;;;;;;13.83;12.33;;;;;;;5.43;76.91;93567.13;6169214;23;20216;-65
2022/01/10 09:42:06;;;;;;;12.37;10.70;;;;;;;5.40;76.64;93564.81;6169519;23;20190;-65
2022/01/10 09:44:34;;;;;;;12.30;10.13;;;;;;;5.14;77.37;93560.47;6168971;23;20221;-63
2022/01/10 09:47:00;;;;;;;13.13;11.10;;;;;;;4.79;78.09;93564.81;6168095;23;20237;-63
2022/01/10 09:49:25;;;;;;;14.67;11.33;;;;;;;5.04;77.79;93559.75;6168863;23;20205;-63
2022/01/10 09:51:51;;;;;;;14.87;11.07;;;;;;;5.06;78.03;93570.84;6168146;23;20202;-62
2022/01/10 09:54:16;;;;;;;16.17;10.67;;;;;;;5.04;78.54;93576.19;6194950;23;20178;-63
2022/01/10 09:56:43;;;;;;;12.90;10.30;;;;;;;5.12;77.95;93565.00;6195268;23;20213;-63
2022/01/10 09:59:09;;;;;;;14.07;10.50;;;;;;;5.04;77.39;93572.78;6168169;23;20229;-63
2022/01/10 10:01:35;;;;;;;12.50;10.60;;;;;;;4.89;77.62;93574.31;6194109;23;20202;-61
2022/01/10 10:04:02;;;;;;;16.43;12.30;;;;;;;4.90;77.73;93576.78;6193918;23;20190;-62
2022/01/10 10:06:31;;;;;;;16.00;12.83;;;;;;;4.96;77.80;93573.53;6166789;23;20237;-62
2022/01/10 10:09:03;;;;;;;13.47;11.10;;;;;;;5.01;78.09;93565.28;6193880;23;20233;-63
2022/01/10 10:11:39;;;;;;;13.23;10.83;;;;;;;4.91;78.19;93559.34;6169165;23;20233;-65
2022/01/10 10:14:06;;;;;;;15.70;12.57;;;;;;;4.81;78.96;93567.25;6169097;23;20213;-64
2022/01/10 10:16:35;;;;;;;13.87;11.80;;;;;;;4.98;79.04;93569.00;6194505;23;20198;-61
2022/01/10 10:19:00;;;;;;;15.27;11.40;;;;;;;5.15;77.90;93561.28;6192623;23;20252;-61
2022/01/10 10:21:26;;;;;;;17.53;12.63;;;;;;;5.02;78.12;93562.50;6167650;23;20198;-61
2022/01/10 10:23:51;;;;;;;20.67;14.67;;;;;;;5.03;79.12;93558.13;6167701;23;20209;-61
2022/01/10 10:26:19;;;;;;;19.90;13.97;;;;;;;5.16;79.02;93568.13;6167684;23;20205;-64
2022/01/10 10:28:45;;;;;;;16.03;12.83;;;;;;;5.06;79.67;93566.44;6168301;23;20208;-62
2022/01/10 10:31:12;;;;;;;13.73;11.43;;;;;;;5.09;79.92;93557.50;6194613;23;20233;-65
2022/01/10 10:33:47;;;;;;;15.30;12.47;;;;;;;5.25;79.12;93562.81;6168613;23;20186;-62
2022/01/10 10:36:13;;;;;;;16.40;12.87;;;;;;;5.23;77.91;93566.53;6168805;23;20178;-63
2022/01/10 10:38:38;;;;;;;14.97;13.10;;;;;;;5.08;78.62;93563.69;6168079;23;20218;-62
2022/01/10 10:41:05;;;;;;;14.87;12.03;;;;;;;5.23;78.04;93564.75;6193646;23;20205;-62
2022/01/10 10:43:32;;;;;;;14.43;12.50;;;;;;;5.03;78.65;93565.94;6168617;23;20197;-61
2022/01/10 10:46:03;;;;;;;15.00;13.20;;;;;;;4.94;79.35;93565.06;6193022;23;20204;-62
2022/01/10 10:48:29;;;;;;;16.40;13.43;;;;;;;4.95;79.36;93569.31;6169361;23;20193;-62
2022/01/10 10:50:58;;;;;;;15.73;13.07;;;;;;;4.80;80.00;93565.63;6193994;23;20194;-62
2022/01/10 10:53:27;;;;;;;13.77;12.33;;;;;;;5.02;79.51;93564.28;6194155;23;20202;-62
2022/01/10 10:55:52;;;;;;;13.33;11.93;;;;;;;5.02;78.74;93570.31;6167491;23;20201;-63
2022/01/10 10:58:18;;;;;;;14.57;12.13;;;;;;;4.91;79.22;93570.59;6168279;23;20213;-63
2022/01/10 11:00:43;;;;;;;13.80;11.60;;;;;;;4.96;79.02;93565.72;6168297;23;20209;-61
2022/01/10 11:03:12;;;;;;;15.17;11.40;;;;;;;4.91;79.62;93574.97;6168233;23;20195;-62
2022/01/10 11:05:38;;;;;;;17.23;11.77;;;;;;;4.84;79.65;93569.56;6194510;23;20202;-63
2022/01/10 11:08:04;;;;;;;13.30;11.47;;;;;;;4.98;78.52;93579.44;6168041;23;20217;-61
2022/01/10 11:10:30;;;;;;;13.23;11.73;;;;;;;4.88;79.38;93575.28;6167437;23;20206;-62
2022/01/10 11:12:59;;;;;;;13.20;11.33;;;;;;;4.93;79.15;93580.84;6192026;23;20209;-62
2022/01/10 11:15:25;;;;;;;11.60;10.40;;;;;;;5.00;79.68;93582.69;6193536;23;20182;-62
2022/01/10 11:17:58;;;;;;;14.10;10.37;;;;;;;5.03;79.63;93582.41;6168006;23;20250;-61
2022/01/10 11:20:25;;;;;;;11.33;9.70;;;;;;;5.05;79.43;93577.84;6168420;23;20193;-60
2022/01/10 11:22:55;;;;;;;10.63;9.07;;;;;;;4.93;79.61;93575.66;6168520;23;20220;-61
2022/01/10 11:25:34;;;;;;;12.47;10.07;;;;;;;4.99;80.39;93580.25;6193628;23;20216;-63
2022/01/10 11:28:09;;;;;;;10.80;8.90;;;;;;;5.17;78.85;93590.63;6168040;23;20269;-65
2022/01/10 11:30:44;;;;;;;11.27;9.43;;;;;;;5.11;79.44;93591.25;6193971;23;20166;-65
2022/01/10 11:33:11;;;;;;;12.60;9.43;;;;;;;5.04;79.46;93585.81;6193260;23;20186;-65
2022/01/10 11:35:41;;;;;;;13.13;8.90;;;;;;;5.17;79.22;93596.63;6167039;23;20202;-64
2022/01/10 11:38:22;;;;;;;9.33;7.87;;;;;;;5.16;78.67;93595.00;6168049;23;20206;-62
2022/01/10 11:40:57;;;;;;;9.43;8.20;;;;;;;5.27;78.41;93588.72;6168452;23;20206;-62
2022/01/10 11:43:43;;;;;;;8.70;7.50;;;;;;;5.26;78.09;93587.88;6169054;23;20201;-64